sensor_id;sensor_type;location;lat;lon;timestamp;P1;durP1;ratioP1;P2;durP2;ratioP2
71734;SDS011;59577;52.122;5.406;2023-05-07T00:00:59;5.87;;;5.37;;
71734;SDS011;59577;52.122;5.406;2023-05-07T00:03:25;6.47;;;4.53;;
71734;SDS011;59577;52.122;5.406;2023-05-07T00:05:53;6.35;;;4.28;;
71734;SDS011;59577;52.122;5.406;2023-05-07T00:08:19;7.45;;;5.25;;
71734;SDS011;59577;52.122;5.406;2023-05-07T00:10:46;7.13;;;5.25;;
71734;SDS011;59577;52.122;5.406;2023-05-07T00:13:13;6.90;;;5.07;;
71734;SDS011;59577;52.122;5.406;2023-05-07T00:15:40;5.20;;;4.78;;
71734;SDS011;59577;52.122;5.406;2023-05-07T00:18:06;5.78;;;4.97;;
71734;SDS011;59577;52.122;5.406;2023-05-07T00:20:33;6.53;;;4.90;;
71734;SDS011;59577;52.122;5.406;2023-05-07T00:23:01;6.07;;;4.60;;
71734;SDS011;59577;52.122;5.406;2023-05-07T00:25:28;8.30;;;5.03;;
71734;SDS011;59577;52.122;5.406;2023-05-07T00:27:54;6.30;;;5.70;;
71734;SDS011;59577;52.122;5.406;2023-05-07T00:30:21;5.80;;;5.30;;
71734;SDS011;59577;52.122;5.406;2023-05-07T00:32:47;5.55;;;4.95;;
71734;SDS011;59577;52.122;5.406;2023-05-07T00:35:15;5.57;;;4.85;;
71734;SDS011;59577;52.122;5.406;2023-05-07T00:37:41;5.50;;;4.70;;
71734;SDS011;59577;52.122;5.406;2023-05-07T00:40:08;4.80;;;4.30;;
71734;SDS011;59577;52.122;5.406;2023-05-07T00:42:35;5.32;;;4.75;;
71734;SDS011;59577;52.122;5.406;2023-05-07T00:45:02;5.03;;;4.63;;
71734;SDS011;59577;52.122;5.406;2023-05-07T00:47:29;5.78;;;4.60;;
71734;SDS011;59577;52.122;5.406;2023-05-07T00:49:57;5.10;;;4.60;;
71734;SDS011;59577;52.122;5.406;2023-05-07T00:52:25;7.43;;;4.03;;
71734;SDS011;59577;52.122;5.406;2023-05-07T00:54:52;5.10;;;4.60;;
71734;SDS011;59577;52.122;5.406;2023-05-07T00:57:20;4.70;;;4.30;;
71734;SDS011;59577;52.122;5.406;2023-05-07T00:59:48;4.70;;;4.13;;
71734;SDS011;59577;52.122;5.406;2023-05-07T01:02:14;5.83;;;3.87;;
71734;SDS011;59577;52.122;5.406;2023-05-07T01:04:41;4.10;;;3.70;;
71734;SDS011;59577;52.122;5.406;2023-05-07T01:07:08;4.18;;;3.78;;
71734;SDS011;59577;52.122;5.406;2023-05-07T01:09:35;5.78;;;3.75;;
71734;SDS011;59577;52.122;5.406;2023-05-07T01:12:03;4.07;;;3.58;;
71734;SDS011;59577;52.122;5.406;2023-05-07T01:14:29;3.80;;;3.23;;
71734;SDS011;59577;52.122;5.406;2023-05-07T01:16:57;4.18;;;3.78;;
71734;SDS011;59577;52.122;5.406;2023-05-07T01:19:25;4.53;;;3.70;;
71734;SDS011;59577;52.122;5.406;2023-05-07T01:21:53;5.50;;;3.92;;
71734;SDS011;59577;52.122;5.406;2023-05-07T01:24:28;4.28;;;3.65;;
71734;SDS011;59577;52.122;5.406;2023-05-07T01:26:55;5.30;;;4.40;;
71734;SDS011;59577;52.122;5.406;2023-05-07T01:29:22;4.63;;;4.20;;
71734;SDS011;59577;52.122;5.406;2023-05-07T01:31:48;4.50;;;4.10;;
71734;SDS011;59577;52.122;5.406;2023-05-07T01:34:17;5.53;;;4.25;;
71734;SDS011;59577;52.122;5.406;2023-05-07T01:36:46;5.05;;;4.55;;
71734;SDS011;59577;52.122;5.406;2023-05-07T01:39:14;3.87;;;3.47;;
71734;SDS011;59577;52.122;5.406;2023-05-07T01:41:42;4.38;;;4.05;;
71734;SDS011;59577;52.122;5.406;2023-05-07T01:44:09;5.88;;;4.47;;
71734;SDS011;59577;52.122;5.406;2023-05-07T01:46:38;5.28;;;4.63;;
71734;SDS011;59577;52.122;5.406;2023-05-07T01:49:05;3.78;;;3.47;;
71734;SDS011;59577;52.122;5.406;2023-05-07T01:51:31;4.20;;;3.80;;
71734;SDS011;59577;52.122;5.406;2023-05-07T01:53:59;5.10;;;4.25;;
71734;SDS011;59577;52.122;5.406;2023-05-07T01:56:26;5.90;;;4.43;;
71734;SDS011;59577;52.122;5.406;2023-05-07T01:58:52;4.93;;;4.45;;
71734;SDS011;59577;52.122;5.406;2023-05-07T02:01:19;5.07;;;4.60;;
71734;SDS011;59577;52.122;5.406;2023-05-07T02:03:47;5.90;;;4.63;;
71734;SDS011;59577;52.122;5.406;2023-05-07T02:06:13;4.85;;;4.43;;
71734;SDS011;59577;52.122;5.406;2023-05-07T02:08:40;4.38;;;3.97;;
71734;SDS011;59577;52.122;5.406;2023-05-07T02:11:06;3.58;;;3.22;;
71734;SDS011;59577;52.122;5.406;2023-05-07T02:13:33;4.55;;;4.15;;
71734;SDS011;59577;52.122;5.406;2023-05-07T02:16:01;4.57;;;4.17;;
71734;SDS011;59577;52.122;5.406;2023-05-07T02:18:28;4.65;;;4.25;;
71734;SDS011;59577;52.122;5.406;2023-05-07T02:20:55;5.00;;;4.60;;
71734;SDS011;59577;52.122;5.406;2023-05-07T02:23:21;4.05;;;3.72;;
71734;SDS011;59577;52.122;5.406;2023-05-07T02:25:48;5.07;;;4.57;;
71734;SDS011;59577;52.122;5.406;2023-05-07T02:28:14;5.03;;;4.63;;
71734;SDS011;59577;52.122;5.406;2023-05-07T02:30:41;4.07;;;3.67;;
71734;SDS011;59577;52.122;5.406;2023-05-07T02:33:07;4.30;;;3.97;;
71734;SDS011;59577;52.122;5.406;2023-05-07T02:35:34;6.30;;;4.35;;
71734;SDS011;59577;52.122;5.406;2023-05-07T02:38:01;5.88;;;4.57;;
71734;SDS011;59577;52.122;5.406;2023-05-07T02:40:28;4.50;;;4.10;;
71734;SDS011;59577;52.122;5.406;2023-05-07T02:42:55;4.88;;;4.15;;
71734;SDS011;59577;52.122;5.406;2023-05-07T02:45:21;4.57;;;4.18;;
71734;SDS011;59577;52.122;5.406;2023-05-07T02:47:47;5.25;;;4.85;;
71734;SDS011;59577;52.122;5.406;2023-05-07T02:50:14;4.40;;;4.00;;
71734;SDS011;59577;52.122;5.406;2023-05-07T02:52:41;5.37;;;4.53;;
71734;SDS011;59577;52.122;5.406;2023-05-07T02:55:07;5.25;;;4.72;;
71734;SDS011;59577;52.122;5.406;2023-05-07T02:57:34;5.13;;;4.63;;
71734;SDS011;59577;52.122;5.406;2023-05-07T03:00:09;5.05;;;4.63;;
71734;SDS011;59577;52.122;5.406;2023-05-07T03:02:37;5.70;;;4.80;;
71734;SDS011;59577;52.122;5.406;2023-05-07T03:05:04;7.50;;;4.23;;
71734;SDS011;59577;52.122;5.406;2023-05-07T03:07:31;5.35;;;4.68;;
71734;SDS011;59577;52.122;5.406;2023-05-07T03:09:58;4.15;;;3.75;;
71734;SDS011;59577;52.122;5.406;2023-05-07T03:12:26;5.25;;;4.78;;
71734;SDS011;59577;52.122;5.406;2023-05-07T03:14:53;5.15;;;4.72;;
71734;SDS011;59577;52.122;5.406;2023-05-07T03:17:20;5.60;;;4.37;;
71734;SDS011;59577;52.122;5.406;2023-05-07T03:19:47;7.25;;;4.93;;
71734;SDS011;59577;52.122;5.406;2023-05-07T03:22:13;5.78;;;5.18;;
71734;SDS011;59577;52.122;5.406;2023-05-07T03:24:40;6.22;;;4.80;;
71734;SDS011;59577;52.122;5.406;2023-05-07T03:27:07;4.90;;;4.47;;
71734;SDS011;59577;52.122;5.406;2023-05-07T03:29:33;5.13;;;4.53;;
71734;SDS011;59577;52.122;5.406;2023-05-07T03:32:00;5.75;;;5.15;;
71734;SDS011;59577;52.122;5.406;2023-05-07T03:34:27;4.35;;;3.95;;
71734;SDS011;59577;52.122;5.406;2023-05-07T03:36:53;4.95;;;4.45;;
71734;SDS011;59577;52.122;5.406;2023-05-07T03:39:20;4.55;;;4.15;;
71734;SDS011;59577;52.122;5.406;2023-05-07T03:41:46;4.70;;;4.23;;
71734;SDS011;59577;52.122;5.406;2023-05-07T03:44:13;6.65;;;5.07;;
71734;SDS011;59577;52.122;5.406;2023-05-07T03:46:40;4.93;;;4.45;;
71734;SDS011;59577;52.122;5.406;2023-05-07T03:49:06;5.75;;;4.68;;
71734;SDS011;59577;52.122;5.406;2023-05-07T03:51:33;6.72;;;4.75;;
71734;SDS011;59577;52.122;5.406;2023-05-07T03:53:59;5.30;;;4.30;;
71734;SDS011;59577;52.122;5.406;2023-05-07T03:56:26;6.32;;;5.25;;
71734;SDS011;59577;52.122;5.406;2023-05-07T03:58:54;7.10;;;4.80;;
71734;SDS011;59577;52.122;5.406;2023-05-07T04:01:20;6.07;;;5.40;;
71734;SDS011;59577;52.122;5.406;2023-05-07T04:03:47;4.45;;;3.92;;
71734;SDS011;59577;52.122;5.406;2023-05-07T04:06:15;5.00;;;4.50;;
71734;SDS011;59577;52.122;5.406;2023-05-07T04:08:42;5.90;;;5.30;;
71734;SDS011;59577;52.122;5.406;2023-05-07T04:11:09;5.20;;;4.72;;
71734;SDS011;59577;52.122;5.406;2023-05-07T04:13:36;7.75;;;5.40;;
71734;SDS011;59577;52.122;5.406;2023-05-07T04:18:31;4.50;;;4.10;;
71734;SDS011;59577;52.122;5.406;2023-05-07T04:20:57;5.55;;;4.95;;
71734;SDS011;59577;52.122;5.406;2023-05-07T04:23:24;5.97;;;5.38;;
71734;SDS011;59577;52.122;5.406;2023-05-07T04:25:51;5.40;;;4.90;;
71734;SDS011;59577;52.122;5.406;2023-05-07T04:28:17;6.38;;;5.78;;
71734;SDS011;59577;52.122;5.406;2023-05-07T04:30:44;6.60;;;5.53;;
71734;SDS011;59577;52.122;5.406;2023-05-07T04:33:11;6.05;;;5.47;;
71734;SDS011;59577;52.122;5.406;2023-05-07T04:35:38;7.15;;;4.90;;
71734;SDS011;59577;52.122;5.406;2023-05-07T04:38:04;7.28;;;5.70;;
71734;SDS011;59577;52.122;5.406;2023-05-07T04:40:31;6.03;;;5.50;;
71734;SDS011;59577;52.122;5.406;2023-05-07T04:42:57;12.30;;;5.20;;
71734;SDS011;59577;52.122;5.406;2023-05-07T04:45:23;6.47;;;5.63;;
71734;SDS011;59577;52.122;5.406;2023-05-07T04:47:50;6.43;;;5.82;;
71734;SDS011;59577;52.122;5.406;2023-05-07T04:50:16;6.60;;;5.80;;
71734;SDS011;59577;52.122;5.406;2023-05-07T04:52:45;7.15;;;5.32;;
71734;SDS011;59577;52.122;5.406;2023-05-07T04:55:12;7.10;;;6.10;;
71734;SDS011;59577;52.122;5.406;2023-05-07T04:57:38;9.50;;;6.18;;
71734;SDS011;59577;52.122;5.406;2023-05-07T05:00:07;7.18;;;5.82;;
71734;SDS011;59577;52.122;5.406;2023-05-07T05:02:38;11.70;;;7.00;;
71734;SDS011;59577;52.122;5.406;2023-05-07T05:05:04;8.68;;;6.85;;
71734;SDS011;59577;52.122;5.406;2023-05-07T05:07:31;10.20;;;7.00;;
71734;SDS011;59577;52.122;5.406;2023-05-07T05:09:58;11.07;;;6.97;;
71734;SDS011;59577;52.122;5.406;2023-05-07T05:12:24;7.28;;;6.53;;
71734;SDS011;59577;52.122;5.406;2023-05-07T05:14:51;10.93;;;7.28;;
71734;SDS011;59577;52.122;5.406;2023-05-07T05:17:17;11.60;;;6.82;;
71734;SDS011;59577;52.122;5.406;2023-05-07T05:19:44;10.03;;;7.67;;
71734;SDS011;59577;52.122;5.406;2023-05-07T05:22:11;11.80;;;7.93;;
71734;SDS011;59577;52.122;5.406;2023-05-07T05:24:37;10.43;;;7.57;;
71734;SDS011;59577;52.122;5.406;2023-05-07T05:27:04;7.20;;;6.50;;
71734;SDS011;59577;52.122;5.406;2023-05-07T05:29:31;9.45;;;7.50;;
71734;SDS011;59577;52.122;5.406;2023-05-07T05:31:57;13.13;;;8.13;;
71734;SDS011;59577;52.122;5.406;2023-05-07T05:34:24;9.23;;;6.72;;
71734;SDS011;59577;52.122;5.406;2023-05-07T05:36:51;8.75;;;7.85;;
71734;SDS011;59577;52.122;5.406;2023-05-07T05:39:17;9.32;;;8.38;;
71734;SDS011;59577;52.122;5.406;2023-05-07T05:41:44;7.28;;;6.60;;
71734;SDS011;59577;52.122;5.406;2023-05-07T05:44:10;9.43;;;7.30;;
71734;SDS011;59577;52.122;5.406;2023-05-07T05:46:37;12.65;;;8.50;;
71734;SDS011;59577;52.122;5.406;2023-05-07T05:49:03;8.48;;;7.68;;
71734;SDS011;59577;52.122;5.406;2023-05-07T05:51:30;12.55;;;8.40;;
71734;SDS011;59577;52.122;5.406;2023-05-07T05:53:56;8.93;;;7.78;;
71734;SDS011;59577;52.122;5.406;2023-05-07T05:56:23;11.67;;;8.13;;
71734;SDS011;59577;52.122;5.406;2023-05-07T05:58:49;9.82;;;8.73;;
71734;SDS011;59577;52.122;5.406;2023-05-07T06:01:17;10.73;;;8.73;;
71734;SDS011;59577;52.122;5.406;2023-05-07T06:03:44;11.13;;;8.40;;
71734;SDS011;59577;52.122;5.406;2023-05-07T06:06:10;13.20;;;9.65;;
71734;SDS011;59577;52.122;5.406;2023-05-07T06:08:37;11.40;;;8.50;;
71734;SDS011;59577;52.122;5.406;2023-05-07T06:11:03;13.63;;;8.77;;
71734;SDS011;59577;52.122;5.406;2023-05-07T06:13:30;12.23;;;8.90;;
71734;SDS011;59577;52.122;5.406;2023-05-07T06:15:56;12.63;;;9.05;;
71734;SDS011;59577;52.122;5.406;2023-05-07T06:18:23;11.75;;;9.60;;
71734;SDS011;59577;52.122;5.406;2023-05-07T06:20:49;10.53;;;9.43;;
71734;SDS011;59577;52.122;5.406;2023-05-07T06:23:16;10.27;;;8.77;;
71734;SDS011;59577;52.122;5.406;2023-05-07T06:25:47;13.93;;;9.48;;
71734;SDS011;59577;52.122;5.406;2023-05-07T06:28:16;14.52;;;9.90;;
71734;SDS011;59577;52.122;5.406;2023-05-07T06:30:42;10.88;;;9.77;;
71734;SDS011;59577;52.122;5.406;2023-05-07T06:33:09;11.57;;;9.37;;
71734;SDS011;59577;52.122;5.406;2023-05-07T06:35:36;14.25;;;9.82;;
71734;SDS011;59577;52.122;5.406;2023-05-07T06:38:02;12.82;;;9.65;;
71734;SDS011;59577;52.122;5.406;2023-05-07T06:40:29;13.57;;;9.45;;
71734;SDS011;59577;52.122;5.406;2023-05-07T06:42:55;12.98;;;9.32;;
71734;SDS011;59577;52.122;5.406;2023-05-07T06:45:22;13.97;;;9.77;;
71734;SDS011;59577;52.122;5.406;2023-05-07T06:47:48;16.58;;;10.45;;
71734;SDS011;59577;52.122;5.406;2023-05-07T06:50:15;14.70;;;10.18;;
71734;SDS011;59577;52.122;5.406;2023-05-07T06:52:43;14.07;;;11.07;;
71734;SDS011;59577;52.122;5.406;2023-05-07T06:55:09;14.15;;;10.13;;
71734;SDS011;59577;52.122;5.406;2023-05-07T06:57:37;15.40;;;10.67;;
71734;SDS011;59577;52.122;5.406;2023-05-07T07:00:04;13.25;;;10.63;;
71734;SDS011;59577;52.122;5.406;2023-05-07T07:02:33;14.55;;;10.00;;
71734;SDS011;59577;52.122;5.406;2023-05-07T07:04:59;12.70;;;10.27;;
71734;SDS011;59577;52.122;5.406;2023-05-07T07:07:26;14.20;;;10.48;;
71734;SDS011;59577;52.122;5.406;2023-05-07T07:09:53;16.10;;;10.60;;
71734;SDS011;59577;52.122;5.406;2023-05-07T07:12:19;11.40;;;10.20;;
71734;SDS011;59577;52.122;5.406;2023-05-07T07:14:46;13.20;;;10.13;;
71734;SDS011;59577;52.122;5.406;2023-05-07T07:17:12;15.32;;;10.93;;
71734;SDS011;59577;52.122;5.406;2023-05-07T07:19:38;12.32;;;10.35;;
71734;SDS011;59577;52.122;5.406;2023-05-07T07:22:05;16.47;;;10.67;;
71734;SDS011;59577;52.122;5.406;2023-05-07T07:24:32;13.98;;;10.20;;
71734;SDS011;59577;52.122;5.406;2023-05-07T07:26:58;13.50;;;10.25;;
71734;SDS011;59577;52.122;5.406;2023-05-07T07:29:25;11.00;;;9.90;;
71734;SDS011;59577;52.122;5.406;2023-05-07T07:31:52;10.73;;;9.63;;
71734;SDS011;59577;52.122;5.406;2023-05-07T07:34:19;12.73;;;10.03;;
71734;SDS011;59577;52.122;5.406;2023-05-07T07:36:46;11.55;;;10.13;;
71734;SDS011;59577;52.122;5.406;2023-05-07T07:39:12;11.90;;;10.02;;
71734;SDS011;59577;52.122;5.406;2023-05-07T07:41:39;11.23;;;10.00;;
71734;SDS011;59577;52.122;5.406;2023-05-07T07:44:05;12.82;;;9.65;;
71734;SDS011;59577;52.122;5.406;2023-05-07T07:46:33;11.37;;;10.03;;
71734;SDS011;59577;52.122;5.406;2023-05-07T07:49:00;11.07;;;9.63;;
71734;SDS011;59577;52.122;5.406;2023-05-07T07:51:27;11.05;;;9.23;;
71734;SDS011;59577;52.122;5.406;2023-05-07T07:53:53;11.23;;;8.52;;
71734;SDS011;59577;52.122;5.406;2023-05-07T07:56:20;10.18;;;8.88;;
71734;SDS011;59577;52.122;5.406;2023-05-07T07:58:46;9.53;;;8.53;;
71734;SDS011;59577;52.122;5.406;2023-05-07T08:01:13;9.30;;;8.25;;
71734;SDS011;59577;52.122;5.406;2023-05-07T08:03:39;9.45;;;8.63;;
71734;SDS011;59577;52.122;5.406;2023-05-07T08:06:06;9.88;;;8.50;;
71734;SDS011;59577;52.122;5.406;2023-05-07T08:08:34;10.13;;;9.13;;
71734;SDS011;59577;52.122;5.406;2023-05-07T08:11:00;12.43;;;8.57;;
71734;SDS011;59577;52.122;5.406;2023-05-07T08:13:27;10.00;;;9.02;;
71734;SDS011;59577;52.122;5.406;2023-05-07T08:15:54;10.80;;;9.32;;
71734;SDS011;59577;52.122;5.406;2023-05-07T08:18:20;10.60;;;9.50;;
71734;SDS011;59577;52.122;5.406;2023-05-07T08:20:46;15.23;;;9.60;;
71734;SDS011;59577;52.122;5.406;2023-05-07T08:23:13;11.63;;;9.73;;
71734;SDS011;59577;52.122;5.406;2023-05-07T08:25:40;15.75;;;10.38;;
71734;SDS011;59577;52.122;5.406;2023-05-07T08:28:08;11.25;;;10.05;;
71734;SDS011;59577;52.122;5.406;2023-05-07T08:30:35;16.20;;;11.73;;
71734;SDS011;59577;52.122;5.406;2023-05-07T08:33:01;12.63;;;11.07;;
71734;SDS011;59577;52.122;5.406;2023-05-07T08:35:28;13.60;;;11.00;;
71734;SDS011;59577;52.122;5.406;2023-05-07T08:37:55;14.05;;;11.15;;
71734;SDS011;59577;52.122;5.406;2023-05-07T08:40:23;15.68;;;11.52;;
71734;SDS011;59577;52.122;5.406;2023-05-07T08:42:52;16.73;;;11.35;;
71734;SDS011;59577;52.122;5.406;2023-05-07T08:45:20;15.73;;;12.05;;
71734;SDS011;59577;52.122;5.406;2023-05-07T08:47:51;13.93;;;11.27;;
71734;SDS011;59577;52.122;5.406;2023-05-07T08:50:21;14.85;;;11.88;;
71734;SDS011;59577;52.122;5.406;2023-05-07T08:52:48;16.38;;;11.45;;
71734;SDS011;59577;52.122;5.406;2023-05-07T08:55:14;15.65;;;12.00;;
71734;SDS011;59577;52.122;5.406;2023-05-07T08:57:41;14.32;;;11.35;;
71734;SDS011;59577;52.122;5.406;2023-05-07T09:00:08;15.90;;;11.03;;
71734;SDS011;59577;52.122;5.406;2023-05-07T09:02:35;14.60;;;11.68;;
71734;SDS011;59577;52.122;5.406;2023-05-07T09:05:02;15.90;;;12.32;;
71734;SDS011;59577;52.122;5.406;2023-05-07T09:07:29;15.18;;;12.57;;
71734;SDS011;59577;52.122;5.406;2023-05-07T09:09:57;15.65;;;11.93;;
71734;SDS011;59577;52.122;5.406;2023-05-07T09:12:23;19.53;;;12.03;;
71734;SDS011;59577;52.122;5.406;2023-05-07T09:14:50;15.70;;;12.95;;
71734;SDS011;59577;52.122;5.406;2023-05-07T09:17:17;16.10;;;12.50;;
71734;SDS011;59577;52.122;5.406;2023-05-07T09:19:46;17.73;;;13.00;;
71734;SDS011;59577;52.122;5.406;2023-05-07T09:22:13;16.92;;;12.70;;
71734;SDS011;59577;52.122;5.406;2023-05-07T09:24:40;13.50;;;10.03;;
71734;SDS011;59577;52.122;5.406;2023-05-07T09:27:07;14.05;;;9.68;;
71734;SDS011;59577;52.122;5.406;2023-05-07T09:29:36;13.82;;;10.63;;
71734;SDS011;59577;52.122;5.406;2023-05-07T09:32:05;13.90;;;10.30;;
71734;SDS011;59577;52.122;5.406;2023-05-07T09:34:33;16.13;;;10.93;;
71734;SDS011;59577;52.122;5.406;2023-05-07T09:37:03;15.10;;;11.00;;
71734;SDS011;59577;52.122;5.406;2023-05-07T09:39:41;14.60;;;10.63;;
71734;SDS011;59577;52.122;5.406;2023-05-07T09:42:09;14.27;;;11.05;;
71734;SDS011;59577;52.122;5.406;2023-05-07T09:44:37;13.88;;;10.05;;
71734;SDS011;59577;52.122;5.406;2023-05-07T09:47:04;12.63;;;10.30;;
71734;SDS011;59577;52.122;5.406;2023-05-07T09:49:35;11.73;;;10.47;;
71734;SDS011;59577;52.122;5.406;2023-05-07T09:52:04;14.27;;;10.30;;
71734;SDS011;59577;52.122;5.406;2023-05-07T09:54:32;15.80;;;10.60;;
71734;SDS011;59577;52.122;5.406;2023-05-07T09:57:01;13.68;;;11.00;;
71734;SDS011;59577;52.122;5.406;2023-05-07T09:59:29;15.02;;;10.00;;
71734;SDS011;59577;52.122;5.406;2023-05-07T10:01:58;13.23;;;10.43;;
71734;SDS011;59577;52.122;5.406;2023-05-07T10:04:29;13.00;;;10.70;;
71734;SDS011;59577;52.122;5.406;2023-05-07T10:06:57;14.90;;;10.45;;
71734;SDS011;59577;52.122;5.406;2023-05-07T10:09:25;16.85;;;11.65;;
71734;SDS011;59577;52.122;5.406;2023-05-07T10:11:52;13.93;;;10.88;;
71734;SDS011;59577;52.122;5.406;2023-05-07T10:14:20;16.60;;;11.50;;
71734;SDS011;59577;52.122;5.406;2023-05-07T10:16:47;13.18;;;10.77;;
71734;SDS011;59577;52.122;5.406;2023-05-07T10:19:14;14.43;;;10.32;;
71734;SDS011;59577;52.122;5.406;2023-05-07T10:21:44;12.70;;;10.90;;
71734;SDS011;59577;52.122;5.406;2023-05-07T10:24:21;12.93;;;11.13;;
71734;SDS011;59577;52.122;5.406;2023-05-07T10:26:52;13.13;;;10.60;;
71734;SDS011;59577;52.122;5.406;2023-05-07T10:32:42;12.65;;;10.73;;
71734;SDS011;59577;52.122;5.406;2023-05-07T10:35:25;12.60;;;10.95;;
71734;SDS011;59577;52.122;5.406;2023-05-07T10:37:56;12.07;;;10.77;;
71734;SDS011;59577;52.122;5.406;2023-05-07T10:40:23;13.03;;;10.83;;
71734;SDS011;59577;52.122;5.406;2023-05-07T10:42:57;15.68;;;11.88;;
71734;SDS011;59577;52.122;5.406;2023-05-07T10:45:28;12.27;;;10.48;;
71734;SDS011;59577;52.122;5.406;2023-05-07T10:48:08;12.25;;;9.70;;
71734;SDS011;59577;52.122;5.406;2023-05-07T10:50:47;13.65;;;10.48;;
71734;SDS011;59577;52.122;5.406;2023-05-07T10:58:25;11.68;;;9.38;;
71734;SDS011;59577;52.122;5.406;2023-05-07T11:00:59;13.95;;;9.80;;
71734;SDS011;59577;52.122;5.406;2023-05-07T11:03:28;12.32;;;9.90;;
71734;SDS011;59577;52.122;5.406;2023-05-07T11:06:11;11.48;;;9.95;;
71734;SDS011;59577;52.122;5.406;2023-05-07T11:11:18;11.13;;;9.75;;
71734;SDS011;59577;52.122;5.406;2023-05-07T11:13:46;12.60;;;10.13;;
71734;SDS011;59577;52.122;5.406;2023-05-07T11:18:47;10.52;;;9.43;;
71734;SDS011;59577;52.122;5.406;2023-05-07T11:21:32;12.90;;;10.45;;
71734;SDS011;59577;52.122;5.406;2023-05-07T11:24:10;10.55;;;9.48;;
71734;SDS011;59577;52.122;5.406;2023-05-07T11:26:41;11.57;;;10.20;;
71734;SDS011;59577;52.122;5.406;2023-05-07T11:29:14;11.02;;;9.93;;
71734;SDS011;59577;52.122;5.406;2023-05-07T11:31:54;12.95;;;9.88;;
71734;SDS011;59577;52.122;5.406;2023-05-07T11:34:25;12.30;;;10.00;;
71734;SDS011;59577;52.122;5.406;2023-05-07T11:36:52;13.18;;;9.50;;
71734;SDS011;59577;52.122;5.406;2023-05-07T11:39:26;12.18;;;10.13;;
71734;SDS011;59577;52.122;5.406;2023-05-07T11:41:53;11.38;;;10.18;;
71734;SDS011;59577;52.122;5.406;2023-05-07T11:44:19;12.70;;;10.55;;
71734;SDS011;59577;52.122;5.406;2023-05-07T11:46:46;11.73;;;10.00;;
71734;SDS011;59577;52.122;5.406;2023-05-07T11:49:12;13.32;;;10.70;;
71734;SDS011;59577;52.122;5.406;2023-05-07T11:51:39;14.02;;;9.95;;
71734;SDS011;59577;52.122;5.406;2023-05-07T11:54:07;11.57;;;10.48;;
71734;SDS011;59577;52.122;5.406;2023-05-07T11:56:35;11.48;;;10.35;;
71734;SDS011;59577;52.122;5.406;2023-05-07T11:59:02;11.73;;;10.60;;
71734;SDS011;59577;52.122;5.406;2023-05-07T12:01:28;12.43;;;10.55;;
71734;SDS011;59577;52.122;5.406;2023-05-07T12:03:55;12.40;;;11.05;;
71734;SDS011;59577;52.122;5.406;2023-05-07T12:06:21;12.20;;;10.55;;
71734;SDS011;59577;52.122;5.406;2023-05-07T12:08:48;12.20;;;10.88;;
71734;SDS011;59577;52.122;5.406;2023-05-07T12:11:24;12.23;;;10.93;;
71734;SDS011;59577;52.122;5.406;2023-05-07T12:13:53;11.77;;;10.57;;
71734;SDS011;59577;52.122;5.406;2023-05-07T12:16:24;13.55;;;10.70;;
71734;SDS011;59577;52.122;5.406;2023-05-07T12:18:51;13.00;;;10.40;;
71734;SDS011;59577;52.122;5.406;2023-05-07T12:21:21;13.32;;;11.55;;
71734;SDS011;59577;52.122;5.406;2023-05-07T12:23:49;13.17;;;11.40;;
71734;SDS011;59577;52.122;5.406;2023-05-07T12:26:16;11.68;;;10.45;;
71734;SDS011;59577;52.122;5.406;2023-05-07T12:28:43;12.32;;;10.63;;
71734;SDS011;59577;52.122;5.406;2023-05-07T12:31:09;11.10;;;10.00;;
71734;SDS011;59577;52.122;5.406;2023-05-07T12:33:36;11.23;;;10.23;;
71734;SDS011;59577;52.122;5.406;2023-05-07T12:36:04;11.47;;;10.37;;
71734;SDS011;59577;52.122;5.406;2023-05-07T12:38:39;13.68;;;11.13;;
71734;SDS011;59577;52.122;5.406;2023-05-07T12:41:08;11.75;;;10.65;;
71734;SDS011;59577;52.122;5.406;2023-05-07T12:43:36;12.02;;;10.88;;
71734;SDS011;59577;52.122;5.406;2023-05-07T12:46:03;11.45;;;10.35;;
71734;SDS011;59577;52.122;5.406;2023-05-07T12:48:32;11.33;;;10.20;;
71734;SDS011;59577;52.122;5.406;2023-05-07T12:50:59;12.32;;;9.95;;
71734;SDS011;59577;52.122;5.406;2023-05-07T12:53:27;10.15;;;9.13;;
71734;SDS011;59577;52.122;5.406;2023-05-07T12:55:55;11.70;;;8.00;;
71734;SDS011;59577;52.122;5.406;2023-05-07T12:58:31;10.43;;;7.20;;
71734;SDS011;59577;52.122;5.406;2023-05-07T13:01:00;7.43;;;6.27;;
71734;SDS011;59577;52.122;5.406;2023-05-07T13:03:31;7.78;;;7.07;;
71734;SDS011;59577;52.122;5.406;2023-05-07T13:06:09;7.18;;;6.30;;
71734;SDS011;59577;52.122;5.406;2023-05-07T13:08:37;6.93;;;5.93;;
71734;SDS011;59577;52.122;5.406;2023-05-07T13:11:07;7.18;;;6.50;;
71734;SDS011;59577;52.122;5.406;2023-05-07T13:13:35;6.93;;;5.90;;
71734;SDS011;59577;52.122;5.406;2023-05-07T13:16:02;8.50;;;7.55;;
71734;SDS011;59577;52.122;5.406;2023-05-07T13:18:30;6.68;;;6.07;;
71734;SDS011;59577;52.122;5.406;2023-05-07T13:20:58;8.32;;;7.10;;
71734;SDS011;59577;52.122;5.406;2023-05-07T13:23:25;6.82;;;6.18;;
71734;SDS011;59577;52.122;5.406;2023-05-07T13:25:52;7.17;;;6.47;;
71734;SDS011;59577;52.122;5.406;2023-05-07T13:28:20;8.20;;;7.25;;
71734;SDS011;59577;52.122;5.406;2023-05-07T13:30:47;9.95;;;7.60;;
71734;SDS011;59577;52.122;5.406;2023-05-07T13:33:14;8.73;;;6.65;;
71734;SDS011;59577;52.122;5.406;2023-05-07T13:35:41;7.78;;;6.88;;
71734;SDS011;59577;52.122;5.406;2023-05-07T13:38:08;7.83;;;7.13;;
71734;SDS011;59577;52.122;5.406;2023-05-07T13:40:34;8.77;;;7.80;;
71734;SDS011;59577;52.122;5.406;2023-05-07T13:43:01;8.77;;;6.70;;
71734;SDS011;59577;52.122;5.406;2023-05-07T13:45:28;6.88;;;6.28;;
71734;SDS011;59577;52.122;5.406;2023-05-07T13:47:56;8.13;;;6.97;;
71734;SDS011;59577;52.122;5.406;2023-05-07T13:50:23;7.27;;;6.60;;
71734;SDS011;59577;52.122;5.406;2023-05-07T13:52:49;8.55;;;7.75;;
71734;SDS011;59577;52.122;5.406;2023-05-07T13:55:19;11.50;;;8.73;;
71734;SDS011;59577;52.122;5.406;2023-05-07T13:57:47;13.02;;;8.52;;
71734;SDS011;59577;52.122;5.406;2023-05-07T14:00:13;9.98;;;8.25;;
71734;SDS011;59577;52.122;5.406;2023-05-07T14:02:40;9.27;;;8.13;;
71734;SDS011;59577;52.122;5.406;2023-05-07T14:05:07;11.40;;;9.50;;
71734;SDS011;59577;52.122;5.406;2023-05-07T14:07:35;12.60;;;10.20;;
71734;SDS011;59577;52.122;5.406;2023-05-07T14:10:02;12.45;;;9.32;;
71734;SDS011;59577;52.122;5.406;2023-05-07T14:12:29;13.02;;;9.45;;
71734;SDS011;59577;52.122;5.406;2023-05-07T14:14:55;12.77;;;9.27;;
71734;SDS011;59577;52.122;5.406;2023-05-07T14:17:22;10.35;;;9.25;;
71734;SDS011;59577;52.122;5.406;2023-05-07T14:19:51;9.55;;;8.30;;
71734;SDS011;59577;52.122;5.406;2023-05-07T14:22:23;11.00;;;9.88;;
71734;SDS011;59577;52.122;5.406;2023-05-07T14:24:50;13.63;;;10.30;;
71734;SDS011;59577;52.122;5.406;2023-05-07T14:27:31;11.97;;;9.13;;
71734;SDS011;59577;52.122;5.406;2023-05-07T14:29:58;10.52;;;9.43;;
71734;SDS011;59577;52.122;5.406;2023-05-07T14:32:24;10.93;;;9.63;;
71734;SDS011;59577;52.122;5.406;2023-05-07T14:34:51;11.85;;;9.63;;
71734;SDS011;59577;52.122;5.406;2023-05-07T14:37:17;9.77;;;7.90;;
71734;SDS011;59577;52.122;5.406;2023-05-07T14:39:46;9.50;;;7.90;;
71734;SDS011;59577;52.122;5.406;2023-05-07T14:42:16;10.05;;;8.32;;
71734;SDS011;59577;52.122;5.406;2023-05-07T14:44:43;10.38;;;8.75;;
71734;SDS011;59577;52.122;5.406;2023-05-07T14:47:11;10.10;;;9.05;;
71734;SDS011;59577;52.122;5.406;2023-05-07T14:49:37;10.02;;;8.88;;
71734;SDS011;59577;52.122;5.406;2023-05-07T14:52:04;12.93;;;8.57;;
71734;SDS011;59577;52.122;5.406;2023-05-07T14:54:35;9.02;;;8.02;;